Archival Weather

Bridgeport/Sikorsky

Bridgeport, Connecticut (KBDR)

Report from: Friday, February 23, 2024 1:06 AM EST
Current time: Wednesday, May 29, 2024 7:32 PM EDT

Current weather – Weather history – Daily summaries
Weather forecast

Present weatherLight rain
Temperature3.9°C (39.0°F)
Wind chill1.5°C (34.8°F)
Dew point2.8°C (37.0°F)
Winds 5 kts (2.6 m/s, 5.8 mph) East (100°)
Visibility8 mi. (12.9 km)
Clouds Scattered clouds 1,500 ft. (457 m)
Ceiling: Broken clouds 2,300 ft. (701 m)
Overcast 3,400 ft. (1,036 m)
Altimeter29.68 in.Hg (1005 mB)
Precipitiation0.01 in. (0 mm)
Relative humidity93 %
Density altitude-955 ft. (-291 m)
Remarks Fully automated report
Special weather observation
Automated weather observing station with precipitation discriminator
Flight conditions Marginal Visual Meteorological Conditions
Raw dataSPUS80 KWBC 230616 SPECI KBDR 230606Z AUTO 10005KT 8SM -RA SCT015 BKN023 OVC034 04/03 A2968 RMK AO2 P0001 T00390028
An error has occurred. This application may no longer respond until reloaded. Reload 🗙